Venus Seven — H9RN — position and weather

sailwx.info

Track history (hours):
 
Tides and Currents Weather Stations Pressure Air Temp Water Temp Dewpoint Dewpoint Depression Visibility Wind Speed Wind Dir Waves Ship Positions

Venus Seven

Last reported at 2016-Aug-27 21:31 UTC. Time now 2016-Aug-27 22:13 UTC.
Position N 34°37' E 135°22'.

Length 93 m; draft 5.6 m.

Type: Cargo ship. MMSI: 353405000.

Date/timePositionNaut miles runAvg speedWind from/ knotsBaromVisibWave heightAir tempDewpointWater temp
2016-Aug-27 21:31N 34°37' E 135°22'0 0.0
2016-Aug-27 20:31N 34°37' E 135°22'0 0.0
2016-Aug-27 19:31N 34°37' E 135°22'0 0.0
2016-Aug-27 18:25N 34°37' E 135°22'0 0.0
2016-Aug-27 16:25N 34°37' E 135°22'0 0.0
2016-Aug-27 15:31N 34°37' E 135°22'0 0.0
2016-Aug-27 14:19N 34°37' E 135°22'0 0.0
2016-Aug-27 13:31N 34°37' E 135°22'1 0.6
2016-Aug-27 12:34N 34°36' E 135°21'1211.9
2016-Aug-27 11:33N 34°34' E 135°07'  
2016-Aug-19 10:25N 34°02' E 134°56'1213.5
2016-Aug-19 09:32N 34°14' E 134°58'1511.4
2016-Aug-19 08:15N 34°27' E 135°07'913.4
2016-Aug-19 07:33N 34°33' E 135°16'9 8.9
2016-Aug-19 06:33N 34°38' E 135°25'0 0.1
2016-Aug-19 05:26N 34°38' E 135°25'0 0.0
2016-Aug-19 04:26N 34°38' E 135°25'0 0.0
2016-Aug-19 03:26N 34°38' E 135°25'0 0.0
2016-Aug-19 02:32N 34°38' E 135°25'0 0.0
2016-Aug-19 01:32N 34°38' E 135°25'0 0.0
2016-Aug-19 00:32N 34°38' E 135°25'0 0.0
2016-Aug-18 23:32N 34°38' E 135°25'0 0.0
2016-Aug-18 22:32N 34°38' E 135°25'0 0.0
2016-Aug-18 21:26N 34°38' E 135°25'0 0.0
2016-Aug-18 20:32N 34°38' E 135°25'0 0.0
2016-Aug-18 19:32N 34°38' E 135°25'0 0.0
2016-Aug-18 18:32N 34°38' E 135°25'0 0.0
2016-Aug-18 17:26N 34°38' E 135°25'0 0.0
2016-Aug-18 16:32N 34°38' E 135°25'0 0.0
2016-Aug-18 15:32N 34°38' E 135°25'0 0.0
2016-Aug-18 14:32N 34°38' E 135°25'0 0.0
2016-Aug-18 13:32N 34°38' E 135°25'0 0.0
2016-Aug-18 12:32N 34°38' E 135°25'0 0.0
2016-Aug-18 11:32N 34°38' E 135°25'0 0.0
2016-Aug-18 10:31N 34°38' E 135°25'0 0.0
2016-Aug-18 09:25N 34°38' E 135°25'0 0.0
2016-Aug-18 08:25N 34°38' E 135°25'0 0.0
2016-Aug-18 07:31N 34°38' E 135°25'0 0.0
2016-Aug-18 06:31N 34°38' E 135°25'0 0.0
2016-Aug-18 05:25N 34°38' E 135°25'0 0.0
2016-Aug-18 04:25N 34°38' E 135°25'0 0.0
2016-Aug-18 03:31N 34°38' E 135°25'0 0.0
2016-Aug-18 02:31N 34°38' E 135°25'0 0.0
2016-Aug-18 01:31N 34°38' E 135°25'0 0.0
2016-Aug-18 00:31N 34°38' E 135°25'0 0.0
2016-Aug-17 23:31N 34°38' E 135°25'0 0.0
2016-Aug-17 22:31N 34°38' E 135°25'2 1.6
2016-Aug-17 21:33N 34°37' E 135°23'  
Track history (hours):
 
Tides and Currents Weather Stations Pressure Air Temp Water Temp Dewpoint Dewpoint Depression Visibility Wind Speed Wind Dir Waves Ship Positions

Venus Seven

Last reported at 2016-Aug-27 21:31 UTC. Time now 2016-Aug-27 22:13 UTC.
Position N 34°37' E 135°22'.

Length 93 m; draft 5.6 m.

Type: Cargo ship. MMSI: 353405000.

Date/timePositionNaut miles runAvg speedWind from/ knotsBaromVisibWave heightAir tempDewpointWater temp
2016-Aug-27 21:31N 34°37' E 135°22'0 0.0
2016-Aug-27 20:31N 34°37' E 135°22'0 0.0
2016-Aug-27 19:31N 34°37' E 135°22'0 0.0
2016-Aug-27 18:25N 34°37' E 135°22'0 0.0
2016-Aug-27 16:25N 34°37' E 135°22'0 0.0
2016-Aug-27 15:31N 34°37' E 135°22'0 0.0
2016-Aug-27 14:19N 34°37' E 135°22'0 0.0
2016-Aug-27 13:31N 34°37' E 135°22'1 0.6
2016-Aug-27 12:34N 34°36' E 135°21'1211.9
2016-Aug-27 11:33N 34°34' E 135°07'  
2016-Aug-19 10:25N 34°02' E 134°56'1213.5
2016-Aug-19 09:32N 34°14' E 134°58'1511.4
2016-Aug-19 08:15N 34°27' E 135°07'913.4
2016-Aug-19 07:33N 34°33' E 135°16'9 8.9
2016-Aug-19 06:33N 34°38' E 135°25'0 0.1
2016-Aug-19 05:26N 34°38' E 135°25'0 0.0
2016-Aug-19 04:26N 34°38' E 135°25'0 0.0
2016-Aug-19 03:26N 34°38' E 135°25'0 0.0
2016-Aug-19 02:32N 34°38' E 135°25'0 0.0
2016-Aug-19 01:32N 34°38' E 135°25'0 0.0
2016-Aug-19 00:32N 34°38' E 135°25'0 0.0
2016-Aug-18 23:32N 34°38' E 135°25'0 0.0
2016-Aug-18 22:32N 34°38' E 135°25'0 0.0
2016-Aug-18 21:26N 34°38' E 135°25'0 0.0
2016-Aug-18 20:32N 34°38' E 135°25'0 0.0
2016-Aug-18 19:32N 34°38' E 135°25'0 0.0
2016-Aug-18 18:32N 34°38' E 135°25'0 0.0
2016-Aug-18 17:26N 34°38' E 135°25'0 0.0
2016-Aug-18 16:32N 34°38' E 135°25'0 0.0
2016-Aug-18 15:32N 34°38' E 135°25'0 0.0
2016-Aug-18 14:32N 34°38' E 135°25'0 0.0
2016-Aug-18 13:32N 34°38' E 135°25'0 0.0
2016-Aug-18 12:32N 34°38' E 135°25'0 0.0
2016-Aug-18 11:32N 34°38' E 135°25'0 0.0
2016-Aug-18 10:31N 34°38' E 135°25'0 0.0
2016-Aug-18 09:25N 34°38' E 135°25'0 0.0
2016-Aug-18 08:25N 34°38' E 135°25'0 0.0
2016-Aug-18 07:31N 34°38' E 135°25'0 0.0
2016-Aug-18 06:31N 34°38' E 135°25'0 0.0
2016-Aug-18 05:25N 34°38' E 135°25'0 0.0
2016-Aug-18 04:25N 34°38' E 135°25'0 0.0
2016-Aug-18 03:31N 34°38' E 135°25'0 0.0
2016-Aug-18 02:31N 34°38' E 135°25'0 0.0
2016-Aug-18 01:31N 34°38' E 135°25'0 0.0
2016-Aug-18 00:31N 34°38' E 135°25'0 0.0
2016-Aug-17 23:31N 34°38' E 135°25'0 0.0
2016-Aug-17 22:31N 34°38' E 135°25'2 1.6
2016-Aug-17 21:33N 34°37' E 135°23'  

Dump ship's entire track history